Time;durP1;ratioP1;P1;durP2;ratioP2;P2;SDS_P1;SDS_P2;PMS_P1;PMS_P2;Temp;Humidity;BMP_temperature;BMP_pressure;BME280_temperature;BME280_humidity;BME280_pressure;Samples;Min_cycle;Max_cycle;Signal;HPM_P1;HPM_P2
2021/07/17 00:02:22;;;;;;;8.55;5.07;;;;;;;11.66;90.66;91331.84;4992066;28;20030;-87
2021/07/17 00:04:59;;;;;;;9.95;4.78;;;;;;;11.69;90.46;91328.56;4979361;28;20109;-87
2021/07/17 00:07:38;;;;;;;5.75;4.30;;;;;;;11.71;90.46;91312.59;4995775;28;20398;-87
2021/07/17 00:10:25;;;;;;;6.80;4.30;;;;;;;11.71;89.61;91321.19;4980102;28;20026;-87
2021/07/17 00:13:00;;;;;;;8.75;4.22;;;;;;;11.69;89.93;91317.34;4995380;28;20022;-88
2021/07/17 00:15:36;;;;;;;12.35;4.10;;;;;;;11.72;89.91;91316.72;4980561;28;20034;-87
2021/07/17 00:18:17;;;;;;;7.40;4.63;;;;;;;11.73;90.48;91320.84;4980264;28;20068;-87
2021/07/17 00:20:50;;;;;;;7.47;4.57;;;;;;;11.78;90.42;91322.50;4980765;28;20038;-86
2021/07/17 00:23:24;;;;;;;5.40;4.15;;;;;;;11.84;89.58;91301.09;4980233;28;20080;-87
2021/07/17 00:26:02;;;;;;;11.73;5.22;;;;;;;12.05;90.63;91311.44;4977061;28;20027;-87
2021/07/17 00:28:44;;;;;;;9.25;5.13;;;;;;;11.90;90.88;91302.38;4976607;28;20097;-87
2021/07/17 00:31:24;;;;;;;9.13;5.47;;;;;;;11.84;89.90;91290.66;4976025;28;20054;-88
2021/07/17 00:34:04;;;;;;;8.50;5.47;;;;;;;12.04;89.56;91303.91;4961835;28;20085;-87
2021/07/17 00:36:41;;;;;;;12.00;6.82;;;;;;;11.94;90.63;91311.13;4995433;28;20022;-87
2021/07/17 00:39:17;;;;;;;13.27;6.68;;;;;;;11.90;91.97;91314.69;4980264;28;20060;-87
2021/07/17 00:41:46;;;;;;;15.60;6.65;;;;;;;11.89;91.47;91305.34;4980458;28;20018;-87
2021/07/17 00:44:21;;;;;;;10.35;6.80;;;;;;;11.90;90.70;91299.78;4995872;28;20490;-86
2021/07/17 00:46:55;;;;;;;7.25;5.18;;;;;;;11.98;91.48;91300.00;4980267;28;20113;-88
2021/07/17 00:49:32;;;;;;;10.63;5.20;;;;;;;11.96;91.62;91290.66;4979351;28;20018;-87
2021/07/17 00:52:10;;;;;;;8.93;5.38;;;;;;;12.02;91.38;91293.81;4979712;28;20018;-87
2021/07/17 00:54:52;;;;;;;7.18;5.50;;;;;;;12.06;91.65;91297.28;4979879;28;20023;-87
2021/07/17 00:57:25;;;;;;;8.65;5.85;;;;;;;12.08;91.79;91296.94;4995582;28;20110;-87
2021/07/17 00:59:59;;;;;;;8.00;5.95;;;;;;;12.13;91.91;91286.31;4979613;28;20023;-87
2021/07/17 01:02:35;;;;;;;10.70;6.28;;;;;;;12.21;91.43;91293.25;4980097;28;20065;-86
2021/07/17 01:05:12;;;;;;;10.18;6.30;;;;;;;12.32;92.03;91294.31;4995390;28;20610;-87
2021/07/17 01:07:51;;;;;;;13.32;8.48;;;;;;;12.43;92.76;91290.16;4980434;28;20101;-87
2021/07/17 01:10:29;;;;;;;8.98;6.00;;;;;;;12.38;91.57;91302.72;4979340;28;20121;-87
2021/07/17 01:13:02;;;;;;;12.02;7.88;;;;;;;12.43;91.78;91289.41;4995459;28;20026;-87
2021/07/17 01:15:37;;;;;;;11.55;5.85;;;;;;;12.28;90.85;91277.78;4978667;28;20034;-87
2021/07/17 01:18:14;;;;;;;11.73;6.88;;;;;;;12.36;90.74;91284.72;4979525;28;20022;-87
2021/07/17 01:20:40;;;;;;;10.90;6.55;;;;;;;12.42;91.19;91278.19;4978989;28;20050;-87
2021/07/17 01:23:23;;;;;;;10.10;6.78;;;;;;;12.53;91.19;91286.34;4978971;28;20549;-87
2021/07/17 01:26:03;;;;;;;9.18;5.85;;;;;;;12.47;91.58;91292.13;4980724;28;20486;-87
2021/07/17 01:28:40;;;;;;;6.47;4.90;;;;;;;12.52;90.96;91286.69;4995601;28;20030;-87
2021/07/17 01:31:18;;;;;;;7.10;5.20;;;;;;;12.50;90.55;91281.00;4994466;28;20054;-87
2021/07/17 01:34:00;;;;;;;10.85;6.30;;;;;;;12.44;91.66;91291.72;4979075;28;20530;-87
2021/07/17 01:36:38;;;;;;;11.07;7.63;;;;;;;12.51;92.47;91295.59;4979387;28;20034;-86
2021/07/17 01:39:15;;;;;;;15.77;8.48;;;;;;;12.62;92.55;91292.22;4994553;28;20034;-87
2021/07/17 01:41:56;;;;;;;18.20;11.00;;;;;;;12.61;93.05;91284.69;4980006;28;20096;-87
2021/07/17 01:44:30;;;;;;;13.75;9.43;;;;;;;12.67;93.40;91286.75;4995468;28;20320;-87
2021/07/17 01:47:02;;;;;;;;;;;;;;;12.77;93.55;91290.75;4979654;28;20049;-87
2021/07/17 01:49:40;;;;;;;11.52;8.10;;;;;;;12.75;92.83;91290.31;5003125;28;19918;-88
2021/07/17 01:52:19;;;;;;;10.82;7.35;;;;;;;12.66;91.72;91285.22;4997030;28;20022;-88
2021/07/17 01:54:54;;;;;;;10.02;7.15;;;;;;;12.63;91.94;91292.97;4949957;28;20031;-86
2021/07/17 01:57:28;;;;;;;13.32;8.40;;;;;;;12.61;91.87;91292.53;4961032;28;20031;-87
2021/07/17 02:00:04;;;;;;;13.80;8.18;;;;;;;12.83;91.33;91292.06;4966111;28;20019;-89
2021/07/17 02:02:43;;;;;;;13.45;8.57;;;;;;;12.84;91.41;91298.78;4969146;28;20106;-85
2021/07/17 02:05:30;;;;;;;14.50;10.10;;;;;;;12.73;92.12;91292.50;4986128;28;20025;-86
2021/07/17 02:08:05;;;;;;;16.85;10.65;;;;;;;12.74;92.67;91290.66;4992554;28;20026;-87
2021/07/17 02:10:44;;;;;;;16.25;10.57;;;;;;;12.74;92.47;91278.34;4976131;28;20038;-88
2021/07/17 02:13:31;;;;;;;20.02;11.65;;;;;;;12.84;92.78;91285.72;4977040;28;20129;-87
2021/07/17 02:16:09;;;;;;;17.98;11.05;;;;;;;12.90;92.71;91294.09;4992478;28;20030;-88
2021/07/17 02:18:51;;;;;;;19.98;13.63;;;;;;;12.97;92.02;91285.66;4975746;28;20033;-86
2021/07/17 02:21:26;;;;;;;17.92;11.25;;;;;;;12.92;92.10;91289.28;4976659;28;20026;-87
2021/07/17 02:24:04;;;;;;;18.42;11.77;;;;;;;12.94;91.93;91292.34;4976490;28;20034;-87
2021/07/17 02:26:43;;;;;;;20.63;11.70;;;;;;;12.92;91.95;91292.66;4976326;28;20027;-87
2021/07/17 02:29:24;;;;;;;21.20;13.00;;;;;;;13.07;91.29;91283.34;4991452;28;20121;-85
2021/07/17 02:31:56;;;;;;;28.77;16.52;;;;;;;13.24;90.33;91274.47;4976526;28;20023;-87
2021/07/17 02:34:35;;;;;;;21.58;12.90;;;;;;;13.11;91.18;91280.84;4960671;28;20502;-87
2021/07/17 02:37:14;;;;;;;19.73;11.25;;;;;;;13.05;91.62;91276.94;4976949;28;20030;-87
2021/07/17 02:39:54;;;;;;;15.02;10.75;;;;;;;13.07;91.69;91283.34;4991555;28;20026;-85
2021/07/17 02:42:33;;;;;;;18.25;10.07;;;;;;;13.04;91.71;91285.84;4990686;28;20018;-88
2021/07/17 02:45:12;;;;;;;16.05;10.35;;;;;;;13.11;91.58;91291.31;4981386;28;20038;-87
2021/07/17 02:47:48;;;;;;;18.17;10.60;;;;;;;13.03;91.64;91284.34;4977327;28;20022;-87
2021/07/17 02:50:29;;;;;;;20.83;12.63;;;;;;;13.07;91.98;91285.97;4976061;28;20023;-87
2021/07/17 02:53:04;;;;;;;20.40;12.40;;;;;;;13.01;92.14;91276.84;4976599;28;20026;-87
2021/07/17 02:55:50;;;;;;;18.83;10.98;;;;;;;13.07;91.99;91287.81;4976724;28;20444;-86
2021/07/17 02:58:28;;;;;;;21.38;12.13;;;;;;;13.08;91.94;91278.88;5007935;28;20028;-86
2021/07/17 03:01:02;;;;;;;21.92;13.70;;;;;;;13.10;92.10;91284.53;4990983;28;20093;-87
2021/07/17 03:03:33;;;;;;;19.48;12.68;;;;;;;13.09;92.25;91277.78;4976010;28;20030;-87
2021/07/17 03:06:05;;;;;;;23.40;13.65;;;;;;;13.15;91.83;91271.22;4976322;28;20088;-87
2021/07/17 03:08:42;;;;;;;23.52;14.20;;;;;;;13.15;91.75;91261.50;4976043;28;20065;-86
2021/07/17 03:11:22;;;;;;;18.65;12.15;;;;;;;13.13;92.12;91261.06;5023125;23;20051;-84
2021/07/17 03:13:58;;;;;;;19.98;12.18;;;;;;;13.19;91.98;91264.22;4954017;28;20035;-84
2021/07/17 03:16:42;;;;;;;21.75;12.95;;;;;;;13.14;92.10;91265.22;4937948;29;20024;-84
2021/07/17 03:19:19;;;;;;;20.20;12.60;;;;;;;13.14;92.01;91267.84;4968791;28;20058;-84
2021/07/17 03:22:03;;;;;;;18.83;11.90;;;;;;;13.18;91.93;91267.94;4954341;28;20035;-84
2021/07/17 03:24:36;;;;;;;20.58;12.57;;;;;;;13.18;91.93;91267.16;4953105;28;20439;-83
2021/07/17 03:27:10;;;;;;;18.98;12.60;;;;;;;13.14;92.18;91280.94;4950322;29;20031;-85
2021/07/17 03:29:49;;;;;;;18.92;11.20;;;;;;;13.28;91.58;91270.06;4949659;29;20532;-84
2021/07/17 03:32:26;;;;;;;17.98;11.23;;;;;;;13.17;91.89;91269.00;4949083;29;20035;-84
2021/07/17 03:35:02;;;;;;;19.52;11.30;;;;;;;13.18;91.81;91269.78;4949746;29;20396;-84
2021/07/17 03:37:39;;;;;;;16.50;11.65;;;;;;;13.13;92.09;91262.94;4953382;29;20028;-86
2021/07/17 03:40:15;;;;;;;17.33;11.13;;;;;;;13.21;91.87;91263.88;4959199;28;20032;-86
2021/07/17 03:42:59;;;;;;;20.23;13.27;;;;;;;13.19;91.58;91264.22;4960692;29;20047;-86
2021/07/17 03:45:35;;;;;;;21.75;13.25;;;;;;;13.18;91.76;91260.09;4978730;29;20016;-87
2021/07/17 03:48:15;;;;;;;28.52;15.30;;;;;;;13.22;91.66;91260.19;4979490;28;20042;-87
2021/07/17 03:50:56;;;;;;;20.25;12.93;;;;;;;13.29;91.47;91253.28;4979356;28;20047;-88
2021/07/17 03:53:29;;;;;;;15.05;10.60;;;;;;;13.39;90.97;91265.09;4962670;28;20015;-87
2021/07/17 03:56:07;;;;;;;20.50;11.25;;;;;;;13.35;91.05;91259.78;4979396;29;20055;-87
2021/07/17 03:58:45;;;;;;;16.73;12.00;;;;;;;13.18;91.72;91249.63;4978482;29;20082;-87
2021/07/17 04:01:24;;;;;;;19.40;12.75;;;;;;;13.22;91.80;91260.19;4971983;28;20526;-87
2021/07/17 04:03:59;;;;;;;20.67;12.38;;;;;;;13.26;91.78;91266.28;4985301;28;20035;-86
2021/07/17 04:06:36;;;;;;;25.45;12.80;;;;;;;13.33;91.34;91262.00;4971755;28;20026;-86
2021/07/17 04:09:04;;;;;;;23.20;12.38;;;;;;;13.31;91.07;91274.66;4959243;28;20435;-86
2021/07/17 04:11:41;;;;;;;18.48;12.20;;;;;;;13.26;91.59;91272.28;4940519;29;20023;-86
2021/07/17 04:14:22;;;;;;;23.83;12.75;;;;;;;13.30;91.39;91278.38;4971396;28;20511;-86
2021/07/17 04:17:01;;;;;;;19.90;13.02;;;;;;;13.25;91.97;91272.59;4957763;28;20042;-86
2021/07/17 04:19:38;;;;;;;21.40;12.80;;;;;;;13.27;91.52;91273.78;4955160;28;20492;-87
2021/07/17 04:22:15;;;;;;;18.48;12.63;;;;;;;13.35;91.28;91279.97;4955753;29;20027;-86
2021/07/17 04:24:53;;;;;;;22.70;13.50;;;;;;;13.36;91.26;91281.50;4955841;29;20024;-86
2021/07/17 04:27:31;;;;;;;18.52;11.60;;;;;;;13.39;91.03;91273.75;4939609;29;20027;-86
2021/07/17 04:30:10;;;;;;;20.70;13.43;;;;;;;13.57;89.47;91281.28;4955805;28;20053;-86
2021/07/17 04:32:52;;;;;;;18.25;12.38;;;;;;;13.43;90.24;91283.53;4955715;29;20031;-86
2021/07/17 04:35:29;;;;;;;23.50;13.18;;;;;;;13.34;90.65;91279.22;4955548;29;20041;-85
2021/07/17 04:38:08;;;;;;;21.85;13.40;;;;;;;13.51;88.97;91280.00;4955667;29;20027;-86
2021/07/17 04:40:49;;;;;;;19.00;12.18;;;;;;;13.48;88.98;91278.06;4955246;28;20050;-86
2021/07/17 04:43:28;;;;;;;22.45;13.60;;;;;;;13.51;89.23;91290.47;4955404;28;20027;-86
2021/07/17 04:46:02;;;;;;;23.52;14.82;;;;;;;13.52;88.67;91289.38;4955265;29;20032;-86
2021/07/17 04:48:38;;;;;;;21.00;12.40;;;;;;;13.48;88.81;91294.53;4955671;29;20094;-86
2021/07/17 04:51:16;;;;;;;27.65;14.95;;;;;;;13.45;89.25;91297.03;4952058;28;20040;-86
2021/07/17 04:53:49;;;;;;;22.60;13.75;;;;;;;13.47;89.06;91297.47;4936678;28;20023;-86
2021/07/17 04:56:32;;;;;;;21.00;12.60;;;;;;;13.43;89.41;91292.16;4920409;29;20023;-86
2021/07/17 04:59:08;;;;;;;18.27;12.27;;;;;;;13.48;89.59;91301.63;4936842;29;20112;-86
2021/07/17 05:01:45;;;;;;;21.08;12.68;;;;;;;13.52;89.45;91310.31;4939240;29;20534;-86
2021/07/17 05:04:27;;;;;;;19.27;12.45;;;;;;;13.55;89.75;91305.16;4951497;28;20480;-86
2021/07/17 05:07:04;;;;;;;18.58;12.13;;;;;;;13.56;89.75;91300.69;4935599;29;20027;-86
2021/07/17 05:09:42;;;;;;;21.70;12.80;;;;;;;13.65;89.43;91301.31;4954643;28;20087;-86
2021/07/17 05:12:11;;;;;;;18.33;11.85;;;;;;;13.83;88.92;91299.13;4954719;29;20031;-86
2021/07/17 05:14:47;;;;;;;25.50;12.82;;;;;;;13.90;88.53;91301.16;4956000;28;20069;-86
2021/07/17 05:17:22;;;;;;;17.45;11.38;;;;;;;13.97;88.51;91290.84;4955069;29;20114;-86
2021/07/17 05:19:58;;;;;;;18.30;11.63;;;;;;;14.00;88.74;91298.78;4938563;28;20058;-86
2021/07/17 05:22:31;;;;;;;19.58;12.35;;;;;;;14.11;87.68;91293.78;4953172;29;20122;-86
2021/07/17 05:25:06;;;;;;;20.75;11.70;;;;;;;14.16;86.95;91296.13;4922764;29;20434;-86
2021/07/17 05:27:42;;;;;;;19.48;11.35;;;;;;;14.20;86.60;91302.22;4938564;29;20118;-87
2021/07/17 05:30:12;;;;;;;18.00;12.15;;;;;;;14.09;87.08;91293.34;4969100;28;20026;-86
2021/07/17 05:32:49;;;;;;;17.15;10.98;;;;;;;14.04;86.83;91293.63;4938458;28;20148;-86
2021/07/17 05:35:30;;;;;;;18.85;11.98;;;;;;;14.12;86.47;91300.53;4969646;28;20034;-87
2021/07/17 05:38:06;;;;;;;18.67;11.68;;;;;;;14.27;85.54;91302.38;4954944;28;20023;-86
2021/07/17 05:40:49;;;;;;;19.55;12.48;;;;;;;14.31;86.77;91303.22;4950825;28;20042;-86
2021/07/17 05:43:27;;;;;;;22.38;12.75;;;;;;;14.31;85.84;91292.75;4934865;29;20567;-86
2021/07/17 05:45:54;;;;;;;19.85;12.40;;;;;;;14.26;85.63;91302.72;4938075;29;20082;-86
2021/07/17 05:48:25;;;;;;;21.13;12.57;;;;;;;14.34;85.89;91302.53;4953972;28;20466;-87
2021/07/17 05:50:59;;;;;;;19.42;12.80;;;;;;;14.47;85.28;91297.19;4938191;29;20024;-86
2021/07/17 05:53:30;;;;;;;19.75;12.95;;;;;;;14.46;84.92;91301.69;4953831;29;20035;-87
2021/07/17 05:56:08;;;;;;;22.98;14.65;;;;;;;14.40;85.15;91302.28;4953734;29;20027;-86
2021/07/17 05:58:47;;;;;;;22.30;12.98;;;;;;;14.44;84.70;91313.59;4937733;29;20027;-87
2021/07/17 06:01:15;;;;;;;20.90;14.07;;;;;;;14.28;85.74;91309.16;4952920;28;20110;-86
2021/07/17 06:03:48;;;;;;;25.00;14.80;;;;;;;14.25;85.05;91304.59;4954653;28;20031;-87
2021/07/17 06:06:25;;;;;;;21.70;13.77;;;;;;;14.42;84.73;91303.47;4954542;28;20043;-86
2021/07/17 06:08:56;;;;;;;22.30;13.27;;;;;;;14.46;85.12;91306.94;4953786;28;20496;-86
2021/07/17 06:11:31;;;;;;;20.90;14.07;;;;;;;14.51;84.56;91300.69;4953128;28;20090;-86
2021/07/17 06:14:05;;;;;;;23.90;14.57;;;;;;;14.44;84.79;91300.50;4953395;29;20027;-88
2021/07/17 06:16:36;;;;;;;27.02;13.63;;;;;;;14.56;85.14;91303.03;4937650;29;20031;-86
2021/07/17 06:19:14;;;;;;;23.80;13.82;;;;;;;14.72;84.81;91306.38;4937453;29;20500;-87
2021/07/17 06:21:49;;;;;;;21.50;13.32;;;;;;;14.88;83.12;91308.97;4952798;28;20051;-86
2021/07/17 06:24:23;;;;;;;18.75;12.90;;;;;;;14.97;82.64;91300.88;4953250;29;20031;-86
2021/07/17 06:26:58;;;;;;;23.00;13.68;;;;;;;15.23;81.43;91303.66;4933759;28;20035;-86
2021/07/17 06:29:30;;;;;;;20.95;12.55;;;;;;;15.23;81.65;91302.88;4949593;29;20036;-86
2021/07/17 06:32:05;;;;;;;20.33;13.23;;;;;;;15.12;83.05;91307.91;4935774;28;20035;-87
2021/07/17 06:34:46;;;;;;;20.77;11.70;;;;;;;15.16;83.63;91308.75;4952976;29;20023;-87
2021/07/17 06:37:26;;;;;;;17.75;12.68;;;;;;;15.23;81.80;91303.66;4952571;28;20684;-87
2021/07/17 06:40:01;;;;;;;19.60;12.40;;;;;;;15.17;81.63;91312.91;4967580;28;20027;-86
2021/07/17 06:42:29;;;;;;;18.65;11.98;;;;;;;15.05;82.79;91305.16;4952896;29;20447;-86
2021/07/17 06:45:07;;;;;;;19.95;12.95;;;;;;;15.00;83.07;91314.06;4937162;29;20110;-86
2021/07/17 06:47:47;;;;;;;18.67;12.50;;;;;;;15.21;82.75;91313.72;4952542;28;20033;-87
2021/07/17 06:50:20;;;;;;;18.63;12.57;;;;;;;15.29;82.44;91318.00;4952730;28;20492;-86
2021/07/17 06:52:55;;;;;;;19.52;12.48;;;;;;;15.36;82.17;91324.50;4967814;28;20035;-86
2021/07/17 06:55:25;;;;;;;18.67;12.10;;;;;;;15.35;80.43;91321.13;4953817;28;20023;-86
2021/07/17 06:58:03;;;;;;;19.92;11.70;;;;;;;15.28;82.15;91320.97;4936549;29;20373;-87
2021/07/17 07:00:35;;;;;;;19.58;11.93;;;;;;;15.32;82.24;91326.28;4953426;28;20031;-86
2021/07/17 07:03:18;;;;;;;19.20;12.68;;;;;;;15.30;82.44;91319.53;4937008;29;20062;-86
2021/07/17 07:05:57;;;;;;;20.20;12.43;;;;;;;15.53;82.05;91321.44;4952586;28;20031;-87
2021/07/17 07:08:35;;;;;;;19.63;12.20;;;;;;;15.49;81.69;91325.88;4952707;29;20019;-86
2021/07/17 07:11:11;;;;;;;16.65;12.43;;;;;;;15.62;81.12;91324.63;4952234;28;20046;-87
2021/07/17 07:13:46;;;;;;;19.17;12.75;;;;;;;15.63;81.10;91325.38;4952511;28;20034;-87
2021/07/17 07:16:22;;;;;;;17.63;11.63;;;;;;;15.87;80.95;91325.06;4952364;29;20020;-87
2021/07/17 07:18:57;;;;;;;18.02;12.10;;;;;;;15.81;81.13;91325.72;4953452;28;20027;-87
2021/07/17 07:21:34;;;;;;;19.25;11.75;;;;;;;15.84;79.91;91325.78;4952068;28;20026;-86
2021/07/17 07:24:15;;;;;;;19.35;12.27;;;;;;;15.77;80.46;91326.41;4936827;28;20467;-87
2021/07/17 07:26:53;;;;;;;19.30;13.00;;;;;;;15.69;81.46;91335.28;4952329;29;20023;-87
2021/07/17 07:29:29;;;;;;;18.58;13.00;;;;;;;15.66;81.70;91325.47;4952027;29;20023;-86
2021/07/17 07:32:07;;;;;;;18.88;11.95;;;;;;;15.59;82.10;91330.56;4951927;28;20059;-87
2021/07/17 07:34:48;;;;;;;16.70;11.45;;;;;;;15.89;81.15;91324.72;4952169;29;20031;-87
2021/07/17 07:37:33;;;;;;;17.25;10.85;;;;;;;16.05;80.56;91329.88;4951764;28;20050;-88
2021/07/17 07:40:10;;;;;;;17.38;11.15;;;;;;;16.18;79.48;91337.22;4967963;28;20031;-88
2021/07/17 07:42:47;;;;;;;16.13;11.50;;;;;;;16.34;80.21;91334.44;4952052;29;20502;-87
2021/07/17 07:45:29;;;;;;;18.90;10.82;;;;;;;16.35;78.73;91335.97;4952657;29;20114;-88
2021/07/17 07:48:05;;;;;;;16.17;11.02;;;;;;;16.51;80.31;91341.09;4952893;28;20833;-87
2021/07/17 07:50:44;;;;;;;15.52;9.95;;;;;;;16.67;78.17;91344.31;4952384;28;20042;-87
2021/07/17 07:53:21;;;;;;;14.93;9.98;;;;;;;16.58;78.90;91338.56;4952917;28;20442;-87
2021/07/17 07:56:02;;;;;;;13.02;9.23;;;;;;;16.57;79.09;91337.06;4953277;28;20050;-88
2021/07/17 07:58:38;;;;;;;14.50;10.15;;;;;;;16.72;78.36;91343.28;4951720;28;20035;-88
2021/07/17 08:01:15;;;;;;;14.48;9.75;;;;;;;16.81;78.32;91343.03;4943972;29;20020;-87
2021/07/17 08:03:48;;;;;;;13.45;9.48;;;;;;;16.85;77.71;91338.59;4936826;29;20077;-87
2021/07/17 08:06:17;;;;;;;13.18;9.27;;;;;;;16.86;78.32;91335.63;4953045;28;20023;-86
2021/07/17 08:09:02;;;;;;;14.60;9.60;;;;;;;16.92;77.07;91336.03;4965872;28;20027;-88
2021/07/17 08:11:36;;;;;;;14.48;9.20;;;;;;;17.00;78.15;91342.94;4966585;28;20031;-87
2021/07/17 08:14:16;;;;;;;14.27;9.27;;;;;;;16.98;77.11;91347.78;4952599;28;20063;-88
2021/07/17 08:16:54;;;;;;;13.00;9.68;;;;;;;17.01;78.21;91341.06;4935992;29;20031;-87
2021/07/17 08:19:21;;;;;;;14.40;9.32;;;;;;;17.03;76.05;91344.88;4946561;28;20027;-87
2021/07/17 08:21:56;;;;;;;12.43;9.18;;;;;;;17.02;76.66;91343.31;4935156;29;20047;-87
2021/07/17 08:24:24;;;;;;;13.32;9.07;;;;;;;17.09;75.70;91338.16;4950880;28;20028;-87
2021/07/17 08:26:51;;;;;;;13.52;8.82;;;;;;;17.39;75.32;91343.41;4956347;28;20504;-87
2021/07/17 08:29:18;;;;;;;12.95;8.68;;;;;;;17.67;74.95;91335.06;4942223;29;20027;-87
2021/07/17 08:31:45;;;;;;;13.35;8.88;;;;;;;17.57;74.59;91340.97;4957873;28;20053;-87
2021/07/17 08:34:13;;;;;;;17.45;10.18;;;;;;;17.36;74.54;91338.09;4956100;28;20167;-88
2021/07/17 08:36:45;;;;;;;12.65;9.05;;;;;;;17.58;74.49;91342.50;4956661;29;20038;-86
2021/07/17 08:39:13;;;;;;;14.02;9.13;;;;;;;17.27;74.69;91342.88;4970489;28;20515;-87
2021/07/17 08:41:42;;;;;;;13.88;8.68;;;;;;;17.12;75.27;91345.34;4954199;28;20058;-86
2021/07/17 08:44:16;;;;;;;13.60;8.70;;;;;;;17.13;74.35;91348.72;4958823;28;20030;-86
2021/07/17 08:46:45;;;;;;;;;;;;;;;17.31;74.21;91354.22;4940536;28;20031;-88
2021/07/17 08:49:13;;;;;;;11.82;8.73;;;;;;;17.28;73.57;91344.38;4955573;29;20026;-87
2021/07/17 08:51:41;;;;;;;12.57;8.82;;;;;;;17.28;73.35;91352.28;4955415;28;20054;-86
2021/07/17 08:54:17;;;;;;;14.27;8.60;;;;;;;17.25;73.35;91353.03;4956034;29;20027;-87
2021/07/17 08:56:46;;;;;;;11.18;8.30;;;;;;;17.38;74.06;91351.66;4954831;29;20099;-87
2021/07/17 08:59:18;;;;;;;14.10;9.45;;;;;;;17.38;74.04;91343.75;4954066;29;20034;-87
2021/07/17 09:01:51;;;;;;;14.00;9.20;;;;;;;17.48;72.85;91343.13;4957059;28;20126;-87
2021/07/17 09:04:31;;;;;;;12.05;8.95;;;;;;;17.37;73.88;91339.63;4957810;28;20424;-87
2021/07/17 09:06:58;;;;;;;12.45;9.15;;;;;;;17.45;74.38;91346.47;4956175;28;20059;-87
2021/07/17 09:09:32;;;;;;;11.50;8.18;;;;;;;17.50;74.19;91351.44;4940788;28;20107;-88
2021/07/17 09:11:58;;;;;;;12.20;8.98;;;;;;;17.59;74.14;91351.91;5028934;23;20050;-86
2021/07/17 09:14:40;;;;;;;12.95;9.10;;;;;;;17.55;74.32;91356.38;4991858;28;20040;-86
2021/07/17 09:17:09;;;;;;;13.82;9.00;;;;;;;17.75;72.74;91349.06;5005507;28;20031;-85
2021/07/17 09:19:53;;;;;;;14.52;8.38;;;;;;;17.93;72.43;91351.91;5016926;28;20112;-85
2021/07/17 09:22:38;;;;;;;13.70;9.32;;;;;;;18.45;72.20;91344.84;4987493;28;20426;-85
2021/07/17 09:25:15;;;;;;;14.10;8.77;;;;;;;18.24;71.96;91347.31;4979102;28;20027;-86
2021/07/17 09:27:41;;;;;;;14.07;8.93;;;;;;;17.85;72.55;91352.97;4977320;28;20022;-86
2021/07/17 09:30:32;;;;;;;13.07;8.90;;;;;;;17.96;72.71;91350.44;4992410;28;20033;-85
2021/07/17 09:33:04;;;;;;;13.20;9.20;;;;;;;17.63;73.28;91352.72;4987809;28;20038;-85
2021/07/17 09:35:38;;;;;;;11.60;9.07;;;;;;;17.67;73.36;91350.88;4976558;28;20085;-88
2021/07/17 09:38:08;;;;;;;15.77;9.65;;;;;;;17.76;72.38;91352.50;4992428;28;20025;-90
2021/07/17 09:41:04;;;;;;;16.38;9.45;;;;;;;18.10;71.92;91346.06;4992173;28;20137;-87
2021/07/17 09:43:38;;;;;;;14.93;9.85;;;;;;;18.21;71.11;91345.38;4992456;28;20142;-87
2021/07/17 09:46:26;;;;;;;11.63;9.05;;;;;;;18.44;72.37;91343.28;4988507;28;20057;-87
2021/07/17 09:48:57;;;;;;;14.73;10.27;;;;;;;18.24;71.69;91342.03;4973694;28;20031;-87
2021/07/17 09:51:35;;;;;;;18.02;10.07;;;;;;;18.18;70.72;91344.22;4992443;28;20024;-87
2021/07/17 09:54:05;;;;;;;15.48;10.02;;;;;;;18.05;70.66;91333.19;4976611;28;20545;-87
2021/07/17 09:56:34;;;;;;;15.30;9.43;;;;;;;18.36;70.78;91333.81;4982579;28;20054;-87
2021/07/17 09:59:00;;;;;;;15.30;8.68;;;;;;;18.58;71.46;91340.75;4957120;28;20031;-88
2021/07/17 10:01:45;;;;;;;16.27;9.50;;;;;;;18.50;72.21;91336.56;4956538;28;20501;-87
2021/07/17 10:04:11;;;;;;;;;;;;;;;18.10;70.95;91338.13;4985047;28;20030;-87
2021/07/17 10:06:56;;;;;;;14.20;9.48;;;;;;;18.22;70.22;91345.00;4992445;28;19913;-89
2021/07/17 10:09:28;;;;;;;18.05;9.95;;;;;;;18.24;69.97;91339.38;4977605;28;20026;-87
2021/07/17 10:11:59;;;;;;;13.93;9.80;;;;;;;18.46;72.12;91340.31;4992060;28;20026;-85
2021/07/17 10:14:40;;;;;;;14.45;9.60;;;;;;;18.58;71.63;91346.03;4976192;28;20117;-87
2021/07/17 10:17:15;;;;;;;16.30;9.52;;;;;;;18.17;69.69;91344.59;4992304;28;20030;-87
2021/07/17 10:19:50;;;;;;;14.90;10.13;;;;;;;18.19;70.77;91337.06;4976187;28;20394;-87
2021/07/17 10:22:17;;;;;;;15.63;10.35;;;;;;;18.23;72.17;91335.22;4975680;28;20113;-87
2021/07/17 10:24:43;;;;;;;13.73;9.18;;;;;;;18.36;71.57;91333.81;4991557;28;20030;-87
2021/07/17 10:27:16;;;;;;;17.52;9.55;;;;;;;18.27;71.49;91338.63;4975993;28;20490;-86
2021/07/17 10:29:45;;;;;;;15.00;9.93;;;;;;;18.33;69.42;91337.19;4976146;28;20050;-87
2021/07/17 10:32:11;;;;;;;13.18;8.90;;;;;;;18.33;70.62;91334.53;4974161;28;20022;-88
2021/07/17 10:34:37;;;;;;;15.57;9.98;;;;;;;18.27;70.35;91334.16;4991034;28;20530;-87
2021/07/17 10:37:12;;;;;;;17.02;10.50;;;;;;;18.32;70.35;91336.44;4991177;28;20037;-87
2021/07/17 10:39:52;;;;;;;15.73;9.90;;;;;;;18.61;69.52;91336.63;4975405;28;20050;-86
2021/07/17 10:42:20;;;;;;;16.02;9.80;;;;;;;18.30;69.57;91333.41;4975152;28;20026;-87
2021/07/17 10:44:54;;;;;;;18.90;11.00;;;;;;;18.39;68.84;91335.72;4996665;28;20030;-89
2021/07/17 10:47:23;;;;;;;17.45;11.20;;;;;;;18.34;69.19;91344.00;4990472;28;20022;-85
2021/07/17 10:49:51;;;;;;;19.00;10.35;;;;;;;18.39;70.34;91331.22;4988599;28;20097;-87
2021/07/17 10:52:54;;;;;;;15.98;9.40;;;;;;;18.56;69.62;91337.00;4990724;28;20120;-85
2021/07/17 10:55:36;;;;;;;14.63;10.07;;;;;;;18.33;69.99;91342.47;4986906;28;20023;-85
2021/07/17 10:58:12;;;;;;;15.45;10.00;;;;;;;18.06;69.55;91341.88;5006687;28;20037;-85
2021/07/17 11:00:57;;;;;;;15.45;9.50;;;;;;;18.09;69.36;91349.81;4991993;28;20394;-85
2021/07/17 11:03:29;;;;;;;16.75;9.93;;;;;;;18.45;69.54;91338.81;4990802;28;20050;-85
2021/07/17 11:05:54;;;;;;;18.60;10.13;;;;;;;18.73;68.67;91343.53;4975345;28;20109;-85
2021/07/17 11:08:34;;;;;;;14.32;9.35;;;;;;;18.75;69.70;91344.69;4990193;28;20394;-86
2021/07/17 11:11:00;;;;;;;13.25;9.40;;;;;;;18.77;68.46;91341.69;4990485;28;20022;-85
2021/07/17 11:13:35;;;;;;;11.57;8.15;;;;;;;19.00;68.77;91336.91;4990774;28;20038;-85
2021/07/17 11:16:08;;;;;;;16.27;9.57;;;;;;;19.00;67.64;91339.56;4990970;28;20100;-85
2021/07/17 11:18:38;;;;;;;15.82;10.23;;;;;;;18.53;69.66;91338.47;4989163;28;20022;-86
2021/07/17 11:21:12;;;;;;;20.20;10.18;;;;;;;18.94;70.72;91342.91;4986341;28;20073;-84
2021/07/17 11:23:40;;;;;;;11.85;8.30;;;;;;;19.08;64.30;91333.19;4974660;28;20022;-86
2021/07/17 11:26:20;;;;;;;14.10;9.50;;;;;;;19.25;66.42;91336.28;5003454;28;20040;-88
2021/07/17 11:28:52;;;;;;;16.63;9.10;;;;;;;19.70;66.72;91340.25;4972808;28;20038;-87
2021/07/17 11:31:51;;;;;;;13.95;9.07;;;;;;;19.65;66.43;91338.00;5003524;28;20027;-87
2021/07/17 11:34:24;;;;;;;13.98;9.93;;;;;;;19.28;65.57;91338.94;5002539;28;20038;-87
2021/07/17 11:36:53;;;;;;;12.10;8.00;;;;;;;19.14;63.92;91338.13;5004302;28;20034;-86
2021/07/17 11:39:24;;;;;;;12.02;8.15;;;;;;;19.38;64.04;91340.13;5003874;28;20026;-86
2021/07/17 11:41:57;;;;;;;11.52;8.13;;;;;;;19.56;65.39;91343.56;5002380;28;20025;-87
2021/07/17 11:44:28;;;;;;;10.60;7.95;;;;;;;19.62;65.06;91337.94;5004671;28;20022;-88
2021/07/17 11:47:06;;;;;;;14.25;7.70;;;;;;;20.10;63.19;91340.34;5007652;28;20033;-88
2021/07/17 11:49:48;;;;;;;12.05;8.10;;;;;;;19.77;60.84;91334.22;5017628;28;20015;-87
2021/07/17 11:52:29;;;;;;;14.50;8.50;;;;;;;19.33;60.91;91333.31;5011489;28;20042;-85
2021/07/17 11:54:57;;;;;;;13.95;8.73;;;;;;;19.30;61.77;91331.41;5001704;28;20026;-86
2021/07/17 11:57:24;;;;;;;12.68;7.88;;;;;;;19.23;62.12;91327.97;5002824;28;20030;-85
2021/07/17 12:00:03;;;;;;;12.55;8.07;;;;;;;19.40;62.68;91329.94;4994622;28;20077;-86
2021/07/17 12:02:34;;;;;;;16.83;8.25;;;;;;;19.46;61.92;91331.06;4978470;28;20038;-86